Time;durP1;ratioP1;P1;durP2;ratioP2;P2;SDS_P1;SDS_P2;PMS_P1;PMS_P2;Temp;Humidity;BMP_temperature;BMP_pressure;BME280_temperature;BME280_humidity;BME280_pressure;Samples;Min_cycle;Max_cycle;Signal;HPM_P1;HPM_P2
2023/06/15 00:00:33;;;;;;;5.87;5.37;;;28.30;44.50;;;;;;4939514;29;20439;-87
2023/06/15 00:02:59;;;;;;;5.60;5.30;;;28.30;44.50;;;;;;4938901;29;20440;-86
2023/06/15 00:05:25;;;;;;;4.70;4.40;;;28.30;44.50;;;;;;4922738;29;20534;-87
2023/06/15 00:07:51;;;;;;;4.93;4.63;;;28.30;44.60;;;;;;4938933;29;20519;-86
2023/06/15 00:10:18;;;;;;;5.17;4.80;;;28.20;44.50;;;;;;4919618;29;20485;-87
2023/06/15 00:12:46;;;;;;;5.10;4.60;;;28.20;44.60;;;;;;4904058;29;20197;-87
2023/06/15 00:15:12;;;;;;;5.70;5.30;;;28.20;44.60;;;;;;4919916;29;20443;-86
2023/06/15 00:18:06;;;;;;;5.30;4.90;;;28.10;44.70;;;;;;4923413;29;20766;-86
2023/06/15 00:20:32;;;;;;;4.70;4.40;;;28.10;44.60;;;;;;4906727;29;20446;-87
2023/06/15 00:23:01;;;;;;;5.27;4.97;;;28.10;44.80;;;;;;4907027;29;20526;-87
2023/06/15 00:25:30;;;;;;;5.37;5.00;;;28.10;44.70;;;;;;4932418;29;20761;-86
2023/06/15 00:27:56;;;;;;;5.40;5.10;;;28.10;44.80;;;;;;4919305;29;20758;-86
2023/06/15 00:30:22;;;;;;;5.33;4.93;;;28.10;44.90;;;;;;4905332;29;20444;-86
2023/06/15 00:32:50;;;;;;;5.20;4.90;;;28.00;44.80;;;;;;4919576;29;20425;-86
2023/06/15 00:35:16;;;;;;;6.20;5.60;;;28.00;44.90;;;;;;4921562;29;20181;-87
2023/06/15 00:37:44;;;;;;;5.27;4.93;;;28.00;44.90;;;;;;4906815;29;20526;-87
2023/06/15 00:40:13;;;;;;;5.00;4.70;;;28.00;45.00;;;;;;4921809;29;20440;-86
2023/06/15 00:42:38;;;;;;;5.70;5.20;;;28.00;45.00;;;;;;4903350;29;21170;-86
2023/06/15 00:45:08;;;;;;;5.40;5.10;;;27.90;45.60;;;;;;4903469;29;20453;-86
2023/06/15 00:47:38;;;;;;;4.73;4.43;;;27.90;45.00;;;;;;4937911;29;20451;-87
2023/06/15 00:50:09;;;;;;;5.77;5.37;;;27.90;45.10;;;;;;4938168;29;20435;-86
2023/06/15 00:52:36;;;;;;;5.43;5.13;;;27.90;45.10;;;;;;4938611;29;20474;-87
2023/06/15 00:55:03;;;;;;;5.27;4.97;;;27.90;45.10;;;;;;4922283;29;20506;-87
2023/06/15 00:57:30;;;;;;;5.50;5.10;;;27.90;45.20;;;;;;4921989;29;20503;-87
2023/06/15 00:59:59;;;;;;;5.50;5.03;;;27.80;45.20;;;;;;4906776;29;20447;-86
2023/06/15 01:02:26;;;;;;;5.63;4.93;;;27.80;45.30;;;;;;4921916;29;20499;-87
2023/06/15 01:04:57;;;;;;;5.17;4.87;;;27.70;45.20;;;;;;4901922;29;20429;-87
2023/06/15 01:07:27;;;;;;;5.03;4.73;;;27.80;45.30;;;;;;4918730;29;20436;-87
2023/06/15 01:09:55;;;;;;;5.70;5.30;;;27.70;45.30;;;;;;4926998;29;20495;-87
2023/06/15 01:12:22;;;;;;;4.90;4.60;;;27.70;45.40;;;;;;4921890;29;20507;-86
2023/06/15 01:14:52;;;;;;;5.30;5.00;;;27.70;45.40;;;;;;4918538;29;20437;-86
2023/06/15 01:17:23;;;;;;;5.60;5.20;;;27.70;45.50;;;;;;4918384;29;20500;-86
2023/06/15 01:20:07;;;;;;;5.30;5.00;;;27.70;45.50;;;;;;4920494;29;20528;-86
2023/06/15 01:22:49;;;;;;;5.97;5.57;;;27.60;45.50;;;;;;4905998;29;20415;-87
2023/06/15 01:25:40;;;;;;;5.83;5.23;;;27.60;45.60;;;;;;4937628;29;20407;-86
2023/06/15 01:28:09;;;;;;;6.03;5.43;;;27.60;45.70;;;;;;4921172;29;20474;-87
2023/06/15 01:30:44;;;;;;;5.80;5.30;;;27.50;45.60;;;;;;4921474;29;20420;-86
2023/06/15 01:33:11;;;;;;;5.70;5.27;;;27.50;45.60;;;;;;4937111;29;20434;-87
2023/06/15 01:35:40;;;;;;;6.30;5.00;;;27.50;45.60;;;;;;4937079;29;20424;-86
2023/06/15 01:38:09;;;;;;;5.53;5.20;;;27.50;45.70;;;;;;4937080;29;20458;-87
2023/06/15 01:40:38;;;;;;;6.10;5.60;;;27.40;45.70;;;;;;4921309;29;20917;-87
2023/06/15 01:43:07;;;;;;;6.23;5.80;;;27.40;45.70;;;;;;4937003;29;20443;-86
2023/06/15 01:45:35;;;;;;;5.57;5.17;;;27.40;45.70;;;;;;4936885;29;20752;-87
2023/06/15 01:48:00;;;;;;;5.40;5.00;;;27.40;45.70;;;;;;4921263;29;20442;-86
2023/06/15 01:50:30;;;;;;;5.60;5.30;;;27.40;45.80;;;;;;4921026;29;20448;-87
2023/06/15 01:52:59;;;;;;;5.30;5.00;;;27.30;45.80;;;;;;4921229;29;20531;-87
2023/06/15 01:55:25;;;;;;;5.50;5.20;;;27.30;45.80;;;;;;4921282;29;20499;-87
2023/06/15 01:57:55;;;;;;;5.40;5.10;;;27.30;45.90;;;;;;4903988;29;20910;-87
2023/06/15 02:00:25;;;;;;;5.80;5.30;;;27.30;45.90;;;;;;4887560;29;20421;-87
2023/06/15 02:02:54;;;;;;;4.97;4.67;;;27.30;45.90;;;;;;4940486;29;20492;-82
2023/06/15 02:05:23;;;;;;;4.90;4.60;;;27.20;45.90;;;;;;4917010;29;20457;-82
2023/06/15 02:07:54;;;;;;;5.83;5.43;;;27.20;46.00;;;;;;4925477;29;20461;-81
2023/06/15 02:10:22;;;;;;;5.80;5.30;;;27.20;46.00;;;;;;4916816;29;20505;-82
2023/06/15 02:12:49;;;;;;;5.10;4.80;;;27.20;46.60;;;;;;4908927;29;20775;-81
2023/06/15 02:15:18;;;;;;;5.53;5.23;;;27.20;46.10;;;;;;4904400;29;20906;-81
2023/06/15 02:17:45;;;;;;;5.20;4.80;;;27.10;46.10;;;;;;4919190;29;21254;-81
2023/06/15 02:20:12;;;;;;;5.60;5.20;;;27.10;46.20;;;;;;4936263;29;20451;-81
2023/06/15 02:22:40;;;;;;;6.07;5.53;;;27.10;46.20;;;;;;4934877;29;20260;-82
2023/06/15 02:25:07;;;;;;;6.00;5.40;;;27.10;46.20;;;;;;4919698;29;20546;-81
2023/06/15 02:27:34;;;;;;;5.50;5.20;;;27.00;46.20;;;;;;4916623;29;20854;-82
2023/06/15 02:30:03;;;;;;;5.00;4.70;;;27.00;46.20;;;;;;4950320;29;20829;-82
2023/06/15 02:32:37;;;;;;;5.80;5.20;;;27.00;46.20;;;;;;4935574;29;20804;-82
2023/06/15 02:35:11;;;;;;;6.20;5.70;;;27.00;46.30;;;;;;4919433;29;20821;-81
2023/06/15 02:37:39;;;;;;;5.30;5.00;;;27.00;46.40;;;;;;4935164;29;20491;-82
2023/06/15 02:40:11;;;;;;;5.77;5.37;;;27.00;46.40;;;;;;4935400;29;20443;-82
2023/06/15 02:42:39;;;;;;;5.40;5.00;;;26.90;46.40;;;;;;4919975;29;20432;-82
2023/06/15 02:45:08;;;;;;;5.93;5.63;;;26.90;46.40;;;;;;4919488;29;20476;-82
2023/06/15 02:47:35;;;;;;;6.20;5.80;;;26.90;46.40;;;;;;4885161;29;20523;-80
2023/06/15 02:50:02;;;;;;;5.70;5.30;;;26.90;46.50;;;;;;4916431;29;20452;-82
2023/06/15 02:52:38;;;;;;;5.47;5.17;;;26.80;46.40;;;;;;4912630;29;20431;-82
2023/06/15 02:55:07;;;;;;;5.87;5.47;;;26.80;46.50;;;;;;4919207;29;20436;-82
2023/06/15 02:57:33;;;;;;;6.20;5.80;;;26.80;46.60;;;;;;4935485;29;20468;-81
2023/06/15 03:00:36;;;;;;;5.70;5.30;;;26.80;46.60;;;;;;4912098;29;20451;-83
2023/06/15 03:03:27;;;;;;;5.90;5.50;;;26.70;46.60;;;;;;4933799;29;20453;-82
2023/06/15 03:05:54;;;;;;;6.03;5.63;;;26.70;46.60;;;;;;4900444;29;20487;-82
2023/06/15 03:08:23;;;;;;;6.10;5.60;;;26.70;46.60;;;;;;4916016;29;20532;-82
2023/06/15 03:10:54;;;;;;;6.00;5.60;;;26.70;46.70;;;;;;4924138;29;20443;-82
2023/06/15 03:13:22;;;;;;;6.00;5.50;;;26.60;46.70;;;;;;4919271;29;20448;-82
2023/06/15 03:15:51;;;;;;;5.83;5.40;;;26.60;46.80;;;;;;4934196;29;20464;-82
2023/06/15 03:18:17;;;;;;;5.53;5.13;;;26.60;46.80;;;;;;4935400;29;20543;-82
2023/06/15 03:20:50;;;;;;;6.73;5.53;;;26.60;46.80;;;;;;4919033;29;20430;-83
2023/06/15 03:23:18;;;;;;;5.40;5.10;;;26.60;46.90;;;;;;4935684;29;20451;-82
2023/06/15 03:25:45;;;;;;;6.13;5.63;;;26.60;46.80;;;;;;4918292;29;20432;-83
2023/06/15 03:28:11;;;;;;;5.37;4.97;;;26.50;46.80;;;;;;4926389;29;20443;-83
2023/06/15 03:30:41;;;;;;;5.40;5.00;;;26.50;46.80;;;;;;4923453;29;20459;-83
2023/06/15 03:33:08;;;;;;;6.07;5.53;;;26.50;46.90;;;;;;4919517;29;20514;-83
2023/06/15 03:35:34;;;;;;;5.40;5.03;;;26.50;46.90;;;;;;4904506;29;20433;-84
2023/06/15 03:38:06;;;;;;;5.97;5.57;;;26.40;46.90;;;;;;4921658;29;20471;-83
2023/06/15 03:40:37;;;;;;;5.10;4.70;;;26.40;47.00;;;;;;4938435;29;20442;-82
2023/06/15 03:43:05;;;;;;;5.70;5.30;;;26.40;47.00;;;;;;4922815;29;20459;-83
2023/06/15 03:45:33;;;;;;;5.80;5.43;;;26.40;47.10;;;;;;4938230;29;20454;-83
2023/06/15 03:48:02;;;;;;;6.73;6.20;;;26.40;47.10;;;;;;4938903;29;20454;-83
2023/06/15 03:50:33;;;;;;;5.33;4.93;;;26.40;47.20;;;;;;4922315;29;20424;-80
2023/06/15 03:53:03;;;;;;;6.33;5.93;;;26.30;47.10;;;;;;4939863;29;20454;-83
2023/06/15 03:55:32;;;;;;;5.60;5.20;;;26.30;47.10;;;;;;4948100;29;20514;-83
2023/06/15 03:57:58;;;;;;;5.70;5.20;;;26.30;47.20;;;;;;4938820;29;20456;-83
2023/06/15 04:00:24;;;;;;;5.67;5.27;;;26.30;47.20;;;;;;4938064;29;20543;-84
2023/06/15 04:02:52;;;;;;;5.63;5.00;;;26.30;47.30;;;;;;4922158;29;20895;-84
2023/06/15 04:05:20;;;;;;;5.70;5.30;;;26.30;47.30;;;;;;4909733;29;20441;-83
2023/06/15 04:07:48;;;;;;;5.40;4.93;;;26.20;47.30;;;;;;4918902;29;20823;-83
2023/06/15 04:10:18;;;;;;;5.90;5.53;;;26.20;47.30;;;;;;4928434;29;20506;-83
2023/06/15 04:12:47;;;;;;;5.73;5.27;;;26.20;47.90;;;;;;4921903;29;20487;-84
2023/06/15 04:15:13;;;;;;;6.30;5.80;;;26.20;47.40;;;;;;4937998;29;20515;-84
2023/06/15 04:17:42;;;;;;;5.90;5.40;;;26.10;47.40;;;;;;4939524;29;20534;-85
2023/06/15 04:20:12;;;;;;;6.63;5.93;;;26.10;47.50;;;;;;4922408;29;20839;-84
2023/06/15 04:22:39;;;;;;;6.30;5.80;;;26.10;47.50;;;;;;4921879;29;20436;-84
2023/06/15 04:25:06;;;;;;;6.30;5.80;;;26.10;47.60;;;;;;4922252;29;20451;-82
2023/06/15 04:27:34;;;;;;;5.47;5.07;;;26.10;47.60;;;;;;4931608;29;20888;-83
2023/06/15 04:30:06;;;;;;;6.10;5.60;;;26.10;47.70;;;;;;4921711;29;20440;-83
2023/06/15 04:32:35;;;;;;;6.37;5.97;;;26.10;47.80;;;;;;4937527;29;20404;-83
2023/06/15 04:35:03;;;;;;;6.10;5.60;;;26.10;47.80;;;;;;4937377;29;20427;-84
2023/06/15 04:37:32;;;;;;;6.53;5.93;;;26.00;47.80;;;;;;4921528;29;20535;-84
2023/06/15 04:39:59;;;;;;;6.20;5.60;;;26.00;47.90;;;;;;4937292;29;20458;-84
2023/06/15 04:42:32;;;;;;;6.30;5.80;;;26.00;48.00;;;;;;4933504;29;20468;-84
2023/06/15 04:45:00;;;;;;;5.90;5.50;;;26.00;48.00;;;;;;4918616;29;20421;-83
2023/06/15 04:47:26;;;;;;;6.47;5.83;;;26.00;48.00;;;;;;4902561;29;20770;-84
2023/06/15 04:49:52;;;;;;;5.33;4.93;;;25.90;48.00;;;;;;4937088;29;20427;-84
2023/06/15 04:52:20;;;;;;;6.20;5.53;;;26.00;48.20;;;;;;4952865;29;20176;-83
2023/06/15 04:54:51;;;;;;;6.57;6.10;;;25.90;48.20;;;;;;4936361;29;20531;-83
2023/06/15 04:57:17;;;;;;;6.33;5.83;;;26.00;48.30;;;;;;4920953;29;20454;-83
2023/06/15 04:59:46;;;;;;;6.10;5.60;;;25.90;48.20;;;;;;4948134;29;20463;-82
2023/06/15 05:02:13;;;;;;;6.40;5.47;;;25.90;48.40;;;;;;4921893;29;20447;-83
2023/06/15 05:04:41;;;;;;;6.03;5.53;;;25.90;48.40;;;;;;4928118;29;20496;-82
2023/06/15 05:07:07;;;;;;;14.40;6.37;;;25.90;48.50;;;;;;4901876;29;20272;-82
2023/06/15 05:09:40;;;;;;;6.27;5.67;;;25.90;48.50;;;;;;4918082;29;20417;-83
2023/06/15 05:12:10;;;;;;;5.90;5.40;;;25.80;48.50;;;;;;4926086;29;20475;-84
2023/06/15 05:14:39;;;;;;;6.67;6.10;;;25.80;48.50;;;;;;4921083;29;20454;-83
2023/06/15 05:17:08;;;;;;;6.63;6.13;;;25.80;48.60;;;;;;4936962;29;20846;-83
2023/06/15 05:19:35;;;;;;;6.23;5.73;;;25.80;48.70;;;;;;4931841;29;20471;-83
2023/06/15 05:22:02;;;;;;;5.87;5.40;;;25.80;48.80;;;;;;4918071;29;20994;-82
2023/06/15 05:24:34;;;;;;;7.23;6.63;;;25.80;48.90;;;;;;4948612;29;20901;-82
2023/06/15 05:27:02;;;;;;;5.67;5.23;;;25.80;48.90;;;;;;4933066;29;20428;-82
2023/06/15 05:29:28;;;;;;;6.47;5.70;;;25.80;48.90;;;;;;4918124;29;20813;-84
2023/06/15 05:31:57;;;;;;;6.47;5.67;;;25.80;49.00;;;;;;4920647;29;20514;-83
2023/06/15 05:34:28;;;;;;;5.90;5.47;;;25.80;49.00;;;;;;4920272;29;20476;-84
2023/06/15 05:36:54;;;;;;;6.20;5.80;;;25.80;49.10;;;;;;4920031;29;20547;-86
2023/06/15 05:39:25;;;;;;;6.80;6.10;;;25.80;49.10;;;;;;4921649;29;20803;-84
2023/06/15 05:41:51;;;;;;;6.63;6.13;;;25.80;49.10;;;;;;4948395;29;20432;-86
2023/06/15 05:44:17;;;;;;;7.07;6.57;;;25.80;49.80;;;;;;4936066;29;20556;-85
2023/06/15 05:46:44;;;;;;;7.03;6.43;;;25.70;49.30;;;;;;4919904;29;20256;-85
2023/06/15 05:49:15;;;;;;;6.10;5.60;;;25.70;49.40;;;;;;4904472;29;20439;-83
2023/06/15 05:51:43;;;;;;;6.17;5.77;;;25.70;49.40;;;;;;4934392;29;20440;-83
2023/06/15 05:54:11;;;;;;;6.50;6.00;;;25.70;49.50;;;;;;4917206;29;20441;-84
2023/06/15 06:00:48;;;;;;;5.83;5.33;;;25.70;49.50;;;;;;4932492;29;20449;-86
2023/06/15 06:03:14;;;;;;;8.10;5.97;;;25.70;49.70;;;;;;4915733;29;20470;-83
2023/06/15 06:05:44;;;;;;;6.83;6.40;;;25.60;49.70;;;;;;4932497;29;20447;-84
2023/06/15 06:08:13;;;;;;;6.27;5.77;;;25.70;49.70;;;;;;4917260;29;20539;-86
2023/06/15 06:10:40;;;;;;;6.30;5.83;;;25.60;49.70;;;;;;4919770;29;21324;-83
2023/06/15 06:13:32;;;;;;;6.00;5.50;;;25.60;49.80;;;;;;4932329;29;20448;-83
2023/06/15 06:16:04;;;;;;;6.17;5.70;;;25.60;49.90;;;;;;4937025;29;20427;-84
2023/06/15 06:18:33;;;;;;;5.97;5.30;;;25.60;49.80;;;;;;4957439;29;20467;-83
2023/06/15 06:20:58;;;;;;;6.73;5.97;;;25.60;49.90;;;;;;4933883;29;20531;-83
2023/06/15 06:23:25;;;;;;;6.70;6.00;;;25.60;50.00;;;;;;4924507;29;21061;-82
2023/06/15 06:25:54;;;;;;;5.90;5.40;;;25.60;49.80;;;;;;4914814;29;20524;-84
2023/06/15 06:28:22;;;;;;;6.93;6.17;;;25.60;49.90;;;;;;4925879;29;20523;-82
2023/06/15 06:30:50;;;;;;;5.87;5.37;;;25.60;49.90;;;;;;4943224;29;20466;-84
2023/06/15 06:33:19;;;;;;;6.53;5.33;;;25.60;49.90;;;;;;4946556;29;20582;-84
2023/06/15 06:35:47;;;;;;;6.13;5.63;;;25.60;49.90;;;;;;4931539;29;20447;-83
2023/06/15 06:38:13;;;;;;;6.20;5.60;;;25.60;49.80;;;;;;4945133;29;20919;-83
2023/06/15 06:40:39;;;;;;;5.60;5.30;;;25.60;49.80;;;;;;4948698;29;20211;-84
2023/06/15 06:43:10;;;;;;;6.43;6.03;;;25.60;49.70;;;;;;4948038;29;20212;-84
2023/06/15 06:45:38;;;;;;;5.83;5.43;;;25.60;49.60;;;;;;4940902;29;20436;-83
2023/06/15 06:48:09;;;;;;;6.03;5.43;;;25.60;49.70;;;;;;4923002;29;20447;-84
2023/06/15 06:50:37;;;;;;;5.77;5.30;;;25.60;49.50;;;;;;4921921;29;20555;-85
2023/06/15 06:53:05;;;;;;;5.97;5.50;;;25.60;49.40;;;;;;4926068;29;20449;-84
2023/06/15 06:55:31;;;;;;;6.20;5.77;;;25.60;49.40;;;;;;4928719;29;20440;-86
2023/06/15 06:58:00;;;;;;;5.90;5.50;;;25.60;49.40;;;;;;4907121;29;20486;-84
2023/06/15 07:00:29;;;;;;;5.23;4.83;;;25.60;49.30;;;;;;4928022;29;20437;-84
2023/06/15 07:02:55;;;;;;;6.20;5.80;;;25.70;49.40;;;;;;4920480;29;20456;-83
2023/06/15 07:05:21;;;;;;;5.70;5.30;;;25.70;49.20;;;;;;4937063;29;20523;-84
2023/06/15 07:07:49;;;;;;;6.93;6.33;;;25.60;49.10;;;;;;4924210;29;20440;-86
2023/06/15 07:10:20;;;;;;;5.23;4.83;;;25.70;49.10;;;;;;4939537;29;20467;-84
2023/06/15 07:12:48;;;;;;;6.03;5.53;;;25.70;49.00;;;;;;4925241;29;20420;-86
2023/06/15 07:15:17;;;;;;;5.67;5.27;;;25.70;48.90;;;;;;4940997;29;20463;-85
2023/06/15 07:17:43;;;;;;;6.33;5.70;;;25.70;48.90;;;;;;4918225;29;20494;-84
2023/06/15 07:20:09;;;;;;;5.90;5.30;;;25.70;48.80;;;;;;4891580;29;20500;-85
2023/06/15 07:22:35;;;;;;;6.17;5.67;;;25.70;48.80;;;;;;4911090;29;20217;-87
2023/06/15 07:25:01;;;;;;;6.33;5.87;;;25.70;48.80;;;;;;4929435;29;20435;-84
2023/06/15 07:27:28;;;;;;;5.80;5.40;;;25.70;48.80;;;;;;4923768;29;20428;-87
2023/06/15 07:29:56;;;;;;;5.83;5.30;;;25.70;48.70;;;;;;4922560;29;20584;-85
2023/06/15 07:32:24;;;;;;;5.87;5.47;;;25.80;48.70;;;;;;4935678;29;20173;-84
2023/06/15 07:34:53;;;;;;;5.83;5.33;;;25.80;48.80;;;;;;4920106;29;20436;-85
2023/06/15 07:37:19;;;;;;;5.93;5.53;;;25.80;48.70;;;;;;4940027;29;20448;-86
2023/06/15 07:39:47;;;;;;;5.77;5.37;;;25.80;48.70;;;;;;4939132;29;20428;-91
2023/06/15 07:42:16;;;;;;;7.37;4.90;;;25.80;48.70;;;;;;4905761;29;20421;-86
2023/06/15 07:44:46;;;;;;;5.80;5.40;;;25.80;48.70;;;;;;4939535;29;20454;-87
2023/06/15 07:47:12;;;;;;;5.50;4.97;;;25.80;48.60;;;;;;4946922;29;20763;-86
2023/06/15 07:49:38;;;;;;;5.67;5.20;;;25.80;48.60;;;;;;4955078;29;20475;-85
2023/06/15 07:52:05;;;;;;;5.90;5.50;;;25.80;48.60;;;;;;4939451;29;20835;-85
2023/06/15 07:54:33;;;;;;;6.00;5.50;;;25.80;48.60;;;;;;4938643;29;20491;-85
2023/06/15 07:57:02;;;;;;;5.03;4.73;;;25.90;48.70;;;;;;4938380;29;20475;-84
2023/06/15 07:59:32;;;;;;;6.40;6.00;;;25.90;48.70;;;;;;4943682;29;20550;-86
2023/06/15 08:02:02;;;;;;;6.23;5.77;;;25.90;48.70;;;;;;4938334;29;20741;-87
2023/06/15 08:04:28;;;;;;;5.80;5.40;;;25.90;48.70;;;;;;4938826;29;20440;-87
2023/06/15 08:06:56;;;;;;;7.07;6.60;;;25.90;48.60;;;;;;4940012;29;20496;-87
2023/06/15 08:09:22;;;;;;;6.27;5.87;;;26.00;48.60;;;;;;4956295;29;20436;-85
2023/06/15 08:11:51;;;;;;;6.03;5.40;;;26.00;48.50;;;;;;4939962;29;20898;-85
2023/06/15 08:14:19;;;;;;;6.77;6.27;;;26.00;48.60;;;;;;4938113;29;20448;-85
2023/06/15 08:16:47;;;;;;;5.97;5.57;;;26.00;48.60;;;;;;4935971;29;21084;-86
2023/06/15 08:19:13;;;;;;;7.57;6.87;;;26.00;48.50;;;;;;4922506;29;20529;-85
2023/06/15 08:21:43;;;;;;;7.17;6.57;;;26.10;48.60;;;;;;4929885;29;20825;-87
2023/06/15 08:24:12;;;;;;;6.50;6.10;;;26.10;48.60;;;;;;4946286;29;20220;-84
2023/06/15 08:26:38;;;;;;;6.40;6.00;;;26.10;48.40;;;;;;4962537;29;20427;-84
2023/06/15 08:29:05;;;;;;;6.07;5.47;;;26.10;48.40;;;;;;4949471;29;20960;-84
2023/06/15 08:31:31;;;;;;;6.07;5.47;;;26.20;48.40;;;;;;4921420;29;20471;-84
2023/06/15 08:33:57;;;;;;;6.97;6.47;;;26.20;48.30;;;;;;4922865;29;20432;-84
2023/06/15 08:36:26;;;;;;;6.40;5.80;;;26.20;48.30;;;;;;4922470;29;20421;-85
2023/06/15 08:38:52;;;;;;;8.27;5.70;;;26.20;48.20;;;;;;4914730;29;20818;-87
2023/06/15 08:41:22;;;;;;;7.13;6.63;;;26.20;48.10;;;;;;4939691;29;20440;-87
2023/06/15 08:43:52;;;;;;;6.50;5.93;;;26.30;48.20;;;;;;4939985;29;20470;-87
2023/06/15 08:46:24;;;;;;;6.67;6.07;;;26.20;48.00;;;;;;4938348;29;20424;-86
2023/06/15 08:48:52;;;;;;;7.27;6.43;;;26.30;48.00;;;;;;4936669;29;20444;-86
2023/06/15 08:51:19;;;;;;;5.83;5.43;;;26.30;47.90;;;;;;4937492;29;20804;-83
2023/06/15 08:53:50;;;;;;;6.27;5.87;;;26.30;47.90;;;;;;4920865;29;20435;-85
2023/06/15 08:56:16;;;;;;;6.97;6.40;;;26.40;47.90;;;;;;4937435;29;20433;-85
2023/06/15 08:58:49;;;;;;;7.07;6.47;;;26.40;47.80;;;;;;4921047;29;20468;-82
2023/06/15 09:01:27;;;;;;;9.43;6.67;;;26.40;47.70;;;;;;4920466;29;20482;-85
2023/06/15 09:03:55;;;;;;;6.60;6.10;;;26.40;47.70;;;;;;4920258;29;20547;-83
2023/06/15 09:06:25;;;;;;;6.63;6.07;;;26.40;47.60;;;;;;4917743;29;20436;-85
2023/06/15 09:08:51;;;;;;;7.23;6.60;;;26.50;47.50;;;;;;4924918;29;20456;-85
2023/06/15 09:11:22;;;;;;;7.20;6.60;;;26.50;47.40;;;;;;4920151;29;20463;-86
2023/06/15 09:13:51;;;;;;;9.00;6.60;;;26.50;47.40;;;;;;4935789;29;20475;-87
2023/06/15 09:16:16;;;;;;;7.43;6.77;;;26.60;47.40;;;;;;4936556;29;20527;-86
2023/06/15 09:18:55;;;;;;;8.20;7.63;;;26.60;47.30;;;;;;4936198;29;20463;-85
2023/06/15 09:21:23;;;;;;;7.73;7.10;;;26.60;47.20;;;;;;4936952;29;20499;-86
2023/06/15 09:23:49;;;;;;;8.33;6.70;;;26.60;47.10;;;;;;4936178;29;20436;-84
2023/06/15 09:26:28;;;;;;;7.90;7.40;;;26.60;47.10;;;;;;4935820;29;20420;-86
2023/06/15 09:28:56;;;;;;;7.20;6.60;;;26.70;47.10;;;;;;4935052;29;20428;-84
2023/06/15 09:31:34;;;;;;;7.60;6.90;;;26.70;47.00;;;;;;4935668;29;20993;-83
2023/06/15 09:34:05;;;;;;;6.63;6.13;;;26.70;46.90;;;;;;4922154;29;20483;-83
2023/06/15 09:36:35;;;;;;;7.47;6.97;;;26.80;46.90;;;;;;4928281;29;20431;-84
2023/06/15 09:39:03;;;;;;;6.80;6.20;;;26.80;46.70;;;;;;4935028;29;20479;-82
2023/06/15 09:41:37;;;;;;;6.30;5.80;;;26.90;46.60;;;;;;4935672;29;20408;-83
2023/06/15 09:44:07;;;;;;;8.23;7.63;;;26.90;46.50;;;;;;4935353;29;20463;-83
2023/06/15 09:46:34;;;;;;;6.67;6.17;;;27.00;46.50;;;;;;4919719;29;20937;-82
2023/06/15 09:49:05;;;;;;;6.83;6.23;;;27.00;46.50;;;;;;4937095;29;20444;-82
2023/06/15 09:51:35;;;;;;;6.60;6.20;;;27.00;46.40;;;;;;4936751;29;20817;-85
2023/06/15 09:54:03;;;;;;;6.23;5.80;;;27.00;46.40;;;;;;4936132;29;20515;-84
2023/06/15 09:56:29;;;;;;;6.33;5.83;;;27.00;46.30;;;;;;4926328;29;20817;-84
2023/06/15 09:58:57;;;;;;;6.60;6.00;;;27.00;46.20;;;;;;4917962;29;20477;-83
2023/06/15 10:01:30;;;;;;;6.87;6.37;;;27.10;46.20;;;;;;4927567;29;20487;-85
2023/06/15 10:04:02;;;;;;;7.63;7.07;;;27.10;46.00;;;;;;4921394;29;20468;-83
2023/06/15 10:06:31;;;;;;;6.97;6.40;;;27.20;45.90;;;;;;4926808;29;20530;-82
2023/06/15 10:09:00;;;;;;;7.10;6.60;;;27.20;45.70;;;;;;4951250;29;20466;-82
2023/06/15 10:11:27;;;;;;;7.27;6.77;;;27.20;45.50;;;;;;4940019;29;20522;-82
2023/06/15 10:13:57;;;;;;;7.17;6.57;;;27.20;45.40;;;;;;4916816;29;20440;-84
2023/06/15 10:16:25;;;;;;;8.40;7.80;;;27.20;45.40;;;;;;4925572;29;20444;-84
2023/06/15 10:19:18;;;;;;;9.03;6.90;;;27.30;45.40;;;;;;4903934;29;20861;-84
2023/06/15 10:21:46;;;;;;;8.73;8.13;;;27.30;45.30;;;;;;4920466;29;20443;-83
2023/06/15 10:24:19;;;;;;;9.10;8.50;;;27.40;45.40;;;;;;4936971;29;20451;-84
2023/06/15 10:26:45;;;;;;;7.30;6.67;;;27.40;45.50;;;;;;4935573;29;20428;-82
2023/06/15 10:29:40;;;;;;;7.40;6.90;;;27.40;45.40;;;;;;4932822;29;20448;-82
2023/06/15 10:32:20;;;;;;;8.33;6.80;;;27.50;45.40;;;;;;4917079;29;20547;-81
2023/06/15 10:34:58;;;;;;;7.30;6.70;;;27.50;45.40;;;;;;4932349;29;20448;-83
2023/06/15 10:37:48;;;;;;;6.67;6.23;;;27.50;45.30;;;;;;4919984;29;20414;-81
2023/06/15 10:40:30;;;;;;;6.67;6.17;;;27.50;45.20;;;;;;4934082;29;20463;-82
2023/06/15 10:43:04;;;;;;;7.50;6.97;;;27.60;45.30;;;;;;4939239;29;20443;-83
2023/06/15 10:45:32;;;;;;;7.27;6.70;;;27.60;45.30;;;;;;4923663;29;20470;-83
2023/06/15 10:48:03;;;;;;;6.50;6.00;;;27.60;45.40;;;;;;4923660;29;20444;-82
2023/06/15 10:50:39;;;;;;;6.87;6.27;;;27.60;45.30;;;;;;4939875;29;20450;-83
2023/06/15 10:53:05;;;;;;;7.30;6.70;;;27.70;45.40;;;;;;4939525;29;20444;-81
2023/06/15 10:55:31;;;;;;;6.60;6.20;;;27.70;45.30;;;;;;4920370;29;20452;-82
2023/06/15 10:58:17;;;;;;;9.37;7.77;;;27.70;45.40;;;;;;4921545;29;20992;-84
2023/06/15 11:00:44;;;;;;;7.23;6.73;;;27.70;45.40;;;;;;4920204;29;20528;-83
2023/06/15 11:03:25;;;;;;;8.20;7.70;;;27.80;45.40;;;;;;4945877;29;20435;-82
2023/06/15 11:06:13;;;;;;;7.87;7.20;;;27.80;45.50;;;;;;4938634;29;20462;-82
2023/06/15 11:08:53;;;;;;;7.23;6.63;;;27.80;45.50;;;;;;4939326;29;20446;-83
2023/06/15 11:11:35;;;;;;;7.40;6.80;;;27.80;45.40;;;;;;4938707;29;20428;-83
2023/06/15 11:14:21;;;;;;;7.57;6.90;;;27.80;45.40;;;;;;4939394;29;20798;-83
2023/06/15 11:17:03;;;;;;;7.80;7.30;;;27.80;45.30;;;;;;4939217;29;20428;-82
2023/06/15 11:19:30;;;;;;;7.30;6.50;;;27.80;45.40;;;;;;4919883;29;20496;-81
2023/06/15 11:22:05;;;;;;;8.10;7.50;;;27.90;45.50;;;;;;4919547;29;20420;-82
2023/06/15 11:24:37;;;;;;;7.50;6.90;;;27.80;45.40;;;;;;4922583;29;20479;-80
2023/06/15 11:27:08;;;;;;;7.57;6.97;;;27.90;45.50;;;;;;4939211;29;20455;-82
2023/06/15 11:29:40;;;;;;;7.60;7.00;;;27.90;45.40;;;;;;4924627;29;20929;-82
2023/06/15 11:32:10;;;;;;;7.17;6.63;;;27.90;45.30;;;;;;4919866;29;21136;-82
2023/06/15 11:34:37;;;;;;;7.80;7.20;;;27.90;45.30;;;;;;4914551;29;20448;-82
2023/06/15 11:37:03;;;;;;;7.33;6.83;;;27.90;45.30;;;;;;4944206;29;20672;-81
2023/06/15 11:39:31;;;;;;;8.00;7.20;;;28.00;45.30;;;;;;4935889;29;20480;-81
2023/06/15 11:42:00;;;;;;;7.67;7.07;;;28.00;45.30;;;;;;4932403;29;20435;-82
2023/06/15 11:44:28;;;;;;;7.63;7.03;;;28.00;45.00;;;;;;4939926;29;20819;-81
2023/06/15 11:47:04;;;;;;;8.40;7.70;;;28.00;44.80;;;;;;4939102;29;20435;-82
2023/06/15 11:49:35;;;;;;;7.13;6.63;;;28.00;44.80;;;;;;4937336;29;20435;-81
2023/06/15 11:52:05;;;;;;;7.33;6.73;;;28.10;44.80;;;;;;4938894;29;20470;-81
2023/06/15 11:54:31;;;;;;;6.87;6.33;;;28.10;44.70;;;;;;4953575;29;20450;-82
2023/06/15 11:56:57;;;;;;;7.20;6.70;;;28.10;44.70;;;;;;4939251;29;20427;-81
2023/06/15 11:59:25;;;;;;;7.37;6.87;;;28.20;44.80;;;;;;4937735;29;20819;-81
2023/06/15 12:01:53;;;;;;;6.77;6.37;;;28.20;44.80;;;;;;4939743;29;20438;-83
2023/06/15 12:04:21;;;;;;;8.07;7.50;;;28.20;44.50;;;;;;4938319;29;20515;-83
2023/06/15 12:06:48;;;;;;;6.27;5.70;;;28.20;44.50;;;;;;4937937;29;20435;-83
2023/06/15 12:09:16;;;;;;;7.40;6.80;;;28.20;44.50;;;;;;4954006;29;20459;-83
2023/06/15 12:11:43;;;;;;;7.23;6.63;;;28.30;44.50;;;;;;4937863;29;20429;-83
2023/06/15 12:14:16;;;;;;;8.10;7.50;;;28.30;44.40;;;;;;4937628;29;20924;-83
2023/06/15 12:16:50;;;;;;;7.53;6.93;;;28.40;44.10;;;;;;4938777;29;20412;-82
2023/06/15 12:19:20;;;;;;;8.23;7.63;;;28.40;44.00;;;;;;4930695;29;20484;-83
2023/06/15 12:21:47;;;;;;;7.30;6.80;;;28.40;44.00;;;;;;4922622;29;20530;-83
2023/06/15 12:24:22;;;;;;;7.17;6.67;;;28.40;43.80;;;;;;4937692;29;20420;-83
2023/06/15 12:26:53;;;;;;;7.77;7.10;;;28.50;43.90;;;;;;4918416;29;20448;-82
2023/06/15 12:29:22;;;;;;;6.97;6.47;;;28.50;43.50;;;;;;4940056;29;20499;-82
2023/06/15 12:31:49;;;;;;;6.77;6.27;;;28.50;43.90;;;;;;4926309;29;20888;-82
2023/06/15 12:34:20;;;;;;;7.40;6.90;;;28.50;43.40;;;;;;4921887;29;20502;-83
2023/06/15 12:36:46;;;;;;;8.20;7.60;;;28.60;43.20;;;;;;4921317;29;20506;-83
2023/06/15 12:39:20;;;;;;;7.13;6.63;;;28.60;43.10;;;;;;4937341;29;20483;-83
2023/06/15 12:41:51;;;;;;;6.97;6.40;;;28.60;43.10;;;;;;4919673;29;20421;-83
2023/06/15 12:44:19;;;;;;;7.50;6.90;;;28.70;43.10;;;;;;4922298;29;20850;-83
2023/06/15 12:46:45;;;;;;;6.67;6.03;;;28.70;43.20;;;;;;4936940;29;20473;-83
2023/06/15 12:49:17;;;;;;;6.93;6.33;;;28.70;43.10;;;;;;4937533;29;20468;-85
2023/06/15 12:51:47;;;;;;;7.30;6.70;;;28.70;43.00;;;;;;4953282;29;20343;-82
2023/06/15 12:54:16;;;;;;;8.23;7.73;;;28.80;42.80;;;;;;4938254;29;20432;-85
2023/06/15 12:56:44;;;;;;;7.43;6.83;;;28.80;42.80;;;;;;4921904;29;20442;-82
2023/06/15 12:59:12;;;;;;;6.60;6.20;;;28.80;42.90;;;;;;4937320;29;20535;-82
2023/06/15 13:01:38;;;;;;;6.40;6.00;;;28.80;42.60;;;;;;4953093;29;20934;-82
2023/06/15 13:04:04;;;;;;;6.80;6.20;;;28.90;42.50;;;;;;4920775;29;20199;-83